Bookmark and Share
Track history (hours):
 

Safmarine Kariba

Last reported at 2012-Oct-03 01:29 UTC. Time now 2014-Apr-24 14:04 UTC.
Position N 35°53' E 027°24'.
Warning: this ship's position is years out of date!

Length 299 m; draft 11.9 m.

Type: Ship (hazmat cat B). MMSI: 235060133.

NotesDate/timePositionNaut miles runAvg speedWind from/ knotsBaromVisibWave heightAir tempDewpointWater temp
2012-Oct-03 01:29N 35°53' E 027°24'7415.0
2012-Oct-02 20:33N 36°48' E 026°22'1515.2
2012-Oct-02 19:33N 36°59' E 026°09'1615.9
2012-Oct-02 18:34N 37°11' E 025°56'1515.2
2012-Oct-02 17:33N 37°24' E 025°46'1514.7
2012-Oct-02 16:33N 37°38' E 025°45'3812.8
2012-Oct-02 13:33N 38°17' E 025°45'1312.6
2012-Oct-02 12:32N 38°29' E 025°45'1312.6
2012-Oct-02 11:30N 38°42' E 025°45'1212.9
2012-Oct-02 10:34N 38°54' E 025°45'  
2012-Sep-29 01:29N 46°28' E 030°53'0 0.1
2012-Sep-28 20:29N 46°28' E 030°54'0 0.0
2012-Sep-28 19:32N 46°28' E 030°54'0 0.0
2012-Sep-28 18:32N 46°28' E 030°54'0 0.0
2012-Sep-28 17:32N 46°28' E 030°54'0 0.0
2012-Sep-28 16:29N 46°28' E 030°54'0 0.0
2012-Sep-28 15:32N 46°28' E 030°54'0 0.0
2012-Sep-28 14:29N 46°28' E 030°54'0 0.1
2012-Sep-28 13:29N 46°28' E 030°54'0 0.0
2012-Sep-28 12:32N 46°28' E 030°54'0 0.0
2012-Sep-28 04:34N 46°28' E 030°53'7 6.6
2012-Sep-28 03:33N 46°30' E 030°44'0 0.2
2012-Sep-28 02:29N 46°30' E 030°44'0 0.0
2012-Sep-28 01:32N 46°30' E 030°44'0 0.0
2012-Sep-28 00:32N 46°30' E 030°44'0 0.0
2012-Sep-27 23:32N 46°30' E 030°44'0 0.0
2012-Sep-27 22:32N 46°30' E 030°44'0 0.0
2012-Sep-27 21:32N 46°30' E 030°44'0 0.0
2012-Sep-27 20:32N 46°30' E 030°44'0 0.0
2012-Sep-27 19:32N 46°30' E 030°44'0 0.0
2012-Sep-27 18:32N 46°30' E 030°44'0 0.0
2012-Sep-27 17:32N 46°30' E 030°44'0 0.0
2012-Sep-27 16:32N 46°30' E 030°44'0 0.0
2012-Sep-27 15:32N 46°30' E 030°44'6 0.2
2012-Sep-25 20:33N 46°28' E 030°52'0 0.0
2012-Sep-25 19:33N 46°28' E 030°52'0 0.0
2012-Sep-25 18:34N 46°28' E 030°52'8 1.1
2012-Sep-25 11:34N 46°20' E 030°54'6 0.8
2012-Sep-25 03:24N 46°18' E 031°02'0 0.0
2012-Sep-24 16:28N 46°18' E 031°02'0 0.0
2012-Sep-24 15:34N 46°18' E 031°02'0 0.0
2012-Sep-24 14:33N 46°18' E 031°02'0 0.0
2012-Sep-24 13:30N 46°18' E 031°02'0 0.1
2012-Sep-24 05:33N 46°17' E 031°02'  

Dump ship's entire track history

sailing weather and tide predictions

Safmarine Kariba — 2AJF4 — position and weather